PWSweather.com
Personal Weather Stations
Station Observations
KNCFLETC11
Addison Creek, Fletcher, NC 28732

Addison CreekFletcher, NC 28732

Lat: 35.441, Lon: -82.46

Elevation: 2205

Station Type: OS WMR 88

Latest ConditionsUpdated 3:55:00 AM EDT Sunday, Apr 23, 2017
Currently Today's Max Today's Min Today's Average
Temperature 55.4°F13.0°C 56.6°F13.7°C 55.4°F13.0°C 55.8°F13.2°C
Dew Point 54.3°F12.4°C 54.9°F12.7°C 54.2°F12.3°C 54.4°F12.4°C
Winds Calm Calm 1.0 mph SE1.6 kmh SE - 0.1 mph 0.2 kmh
Wind Gusts 1.0 mph1.6 kmh 5.0 mph8.0 kmh - -
Humidity 96% 96% 94% 95%
Pressure 29.81 in1009.5 mb 29.89 in1012.2 mb 29.81 in1009.5 mb -
Precipitation - 0.22 in5.6 mm - -
Hour Temp Dew Point Humidity Winds Wind Gusts Pressure Precip Precip Rate Daily Precip Total
03:55 AM 55.4°F13.0°C 54.3°F12.4°C 96% Calm Calm 1.0 mph1.6 kmh 29.81 in1009.5 mb 0.06 in1.5 mm 0.00 in0.0 mm 0.22 in5.6 mm
03:50 AM 55.4°F13.0°C 54.3°F12.4°C 96% Calm Calm 2.0 mph3.2 kmh 29.81 in1009.5 mb 0.08 in2.0 mm 0.00 in0.0 mm 0.22 in5.6 mm
03:45 AM 55.4°F13.0°C 54.3°F12.4°C 96% 1.0 mph N1.6 kmh N 2.0 mph3.2 kmh 29.82 in1009.8 mb 0.10 in2.5 mm 0.00 in0.0 mm 0.22 in5.6 mm
03:40 AM 55.4°F13.0°C 54.3°F12.4°C 96% Calm Calm 2.0 mph3.2 kmh 29.82 in1009.8 mb 0.11 in2.8 mm 0.00 in0.0 mm 0.22 in5.6 mm
03:35 AM 55.4°F13.0°C 54.3°F12.4°C 96% Calm Calm -- 29.82 in1009.8 mb 0.11 in2.8 mm 0.00 in0.0 mm 0.21 in5.3 mm
03:30 AM 55.4°F13.0°C 54.3°F12.4°C 96% Calm Calm 1.0 mph1.6 kmh 29.82 in1009.8 mb 0.12 in3.0 mm 0.00 in0.0 mm 0.21 in5.3 mm
03:25 AM 55.4°F13.0°C 54.3°F12.4°C 96% Calm Calm 2.0 mph3.2 kmh 29.82 in1009.8 mb 0.13 in3.3 mm 0.12 in3.0 mm 0.21 in5.3 mm
03:20 AM 55.4°F13.0°C 54.3°F12.4°C 96% Calm Calm 5.0 mph8.0 kmh 29.82 in1009.8 mb 0.12 in3.0 mm 0.00 in0.0 mm 0.20 in5.1 mm
03:15 AM 55.4°F13.0°C 54.3°F12.4°C 96% Calm Calm 5.0 mph8.0 kmh 29.82 in1009.8 mb 0.12 in3.0 mm 0.12 in3.0 mm 0.20 in5.1 mm
03:10 AM 55.5°F13.1°C 54.4°F12.4°C 96% Calm Calm 3.0 mph4.8 kmh 29.83 in1010.2 mb 0.11 in2.8 mm 0.12 in3.0 mm 0.19 in4.8 mm
03:05 AM 55.5°F13.1°C 54.4°F12.4°C 96% 1.0 mph N1.6 kmh N 2.0 mph3.2 kmh 29.82 in1009.8 mb 0.10 in2.5 mm 0.12 in3.0 mm 0.18 in4.6 mm
03:00 AM 55.5°F13.1°C 54.4°F12.4°C 96% Calm Calm 2.0 mph3.2 kmh 29.82 in1009.8 mb 0.09 in2.3 mm 0.02 in0.5 mm 0.17 in4.3 mm
02:55 AM 55.5°F13.1°C 54.4°F12.4°C 96% Calm Calm -- 29.82 in1009.8 mb 0.07 in1.8 mm 0.12 in3.0 mm 0.15 in3.8 mm
02:50 AM 55.6°F13.1°C 54.5°F12.5°C 96% Calm Calm -- 29.83 in1010.2 mb 0.06 in1.5 mm 0.24 in6.1 mm 0.14 in3.6 mm
02:45 AM 55.6°F13.1°C 54.5°F12.5°C 96% Calm Calm -- 29.84 in1010.5 mb 0.04 in1.0 mm 0.12 in3.0 mm 0.12 in3.0 mm
02:40 AM 55.6°F13.1°C 54.2°F12.3°C 95% Calm Calm -- 29.84 in1010.5 mb 0.03 in0.8 mm 0.12 in3.0 mm 0.11 in2.8 mm
02:35 AM 55.6°F13.1°C 54.2°F12.3°C 95% Calm Calm -- 29.84 in1010.5 mb 0.02 in0.5 mm 0.12 in3.0 mm 0.10 in2.5 mm
02:30 AM 55.7°F13.2°C 54.3°F12.4°C 95% Calm Calm -- 29.84 in1010.5 mb 0.01 in0.3 mm 0.12 in3.0 mm 0.09 in2.3 mm
02:25 AM 55.7°F13.2°C 54.6°F12.6°C 96% Calm Calm -- 29.84 in1010.5 mb 0.00 in0.0 mm 0.00 in0.0 mm 0.08 in2.0 mm
02:20 AM 55.7°F13.2°C 54.3°F12.4°C 95% Calm Calm -- 29.84 in1010.5 mb 0.00 in0.0 mm 0.00 in0.0 mm 0.08 in2.0 mm
02:15 AM 55.6°F13.1°C 54.2°F12.3°C 95% Calm Calm -- 29.84 in1010.5 mb 0.00 in0.0 mm 0.00 in0.0 mm 0.08 in2.0 mm
02:10 AM 55.6°F13.1°C 54.2°F12.3°C 95% Calm Calm -- 29.84 in1010.5 mb 0.00 in0.0 mm 0.00 in0.0 mm 0.08 in2.0 mm
02:05 AM 55.6°F13.1°C 54.2°F12.3°C 95% Calm Calm -- 29.84 in1010.5 mb 0.00 in0.0 mm 0.00 in0.0 mm 0.08 in2.0 mm
02:00 AM 55.6°F13.1°C 54.2°F12.3°C 95% Calm Calm -- 29.84 in1010.5 mb 0.00 in0.0 mm 0.00 in0.0 mm 0.08 in2.0 mm
01:55 AM 55.6°F13.1°C 54.2°F12.3°C 95% Calm Calm -- 29.84 in1010.5 mb 0.01 in0.3 mm 0.00 in0.0 mm 0.08 in2.0 mm
01:50 AM 55.6°F13.1°C 54.2°F12.3°C 95% Calm Calm 1.0 mph1.6 kmh 29.84 in1010.5 mb 0.01 in0.3 mm 0.00 in0.0 mm 0.08 in2.0 mm
01:45 AM 55.6°F13.1°C 54.2°F12.3°C 95% Calm Calm 1.0 mph1.6 kmh 29.84 in1010.5 mb 0.01 in0.3 mm 0.00 in0.0 mm 0.08 in2.0 mm
01:40 AM 55.7°F13.2°C 54.3°F12.4°C 95% Calm Calm 2.0 mph3.2 kmh 29.84 in1010.5 mb 0.01 in0.3 mm 0.00 in0.0 mm 0.08 in2.0 mm
01:35 AM 55.7°F13.2°C 54.3°F12.4°C 95% Calm Calm 2.0 mph3.2 kmh 29.84 in1010.5 mb 0.01 in0.3 mm 0.00 in0.0 mm 0.08 in2.0 mm
01:30 AM 55.7°F13.2°C 54.3°F12.4°C 95% Calm Calm 1.0 mph1.6 kmh 29.84 in1010.5 mb 0.01 in0.3 mm 0.00 in0.0 mm 0.08 in2.0 mm
01:25 AM 55.8°F13.2°C 54.4°F12.4°C 95% Calm Calm 1.0 mph1.6 kmh 29.84 in1010.5 mb 0.02 in0.5 mm 0.00 in0.0 mm 0.08 in2.0 mm
01:20 AM 55.9°F13.3°C 54.5°F12.5°C 95% Calm Calm 1.0 mph1.6 kmh 29.84 in1010.5 mb 0.03 in0.8 mm 0.00 in0.0 mm 0.08 in2.0 mm
01:15 AM 55.9°F13.3°C 54.5°F12.5°C 95% Calm Calm 1.0 mph1.6 kmh 29.84 in1010.5 mb 0.04 in1.0 mm 0.00 in0.0 mm 0.08 in2.0 mm
01:10 AM 55.9°F13.3°C 54.5°F12.5°C 95% Calm Calm 1.0 mph1.6 kmh 29.85 in1010.8 mb 0.06 in1.5 mm 0.00 in0.0 mm 0.08 in2.0 mm
01:05 AM 55.9°F13.3°C 54.5°F12.5°C 95% Calm Calm 1.0 mph1.6 kmh 29.84 in1010.5 mb 0.07 in1.8 mm 0.00 in0.0 mm 0.08 in2.0 mm
01:00 AM 56.0°F13.3°C 54.6°F12.6°C 95% Calm Calm 1.0 mph1.6 kmh 29.84 in1010.5 mb 0.08 in2.0 mm 0.00 in0.0 mm 0.08 in2.0 mm
12:55 AM 56.0°F13.3°C 54.6°F12.6°C 95% Calm Calm 1.0 mph1.6 kmh 29.84 in1010.5 mb 0.08 in2.0 mm 0.00 in0.0 mm 0.07 in1.8 mm
12:50 AM 56.0°F13.3°C 54.6°F12.6°C 95% Calm Calm 1.0 mph1.6 kmh 29.85 in1010.8 mb 0.08 in2.0 mm 0.00 in0.0 mm 0.07 in1.8 mm
12:45 AM 56.0°F13.3°C 54.6°F12.6°C 95% Calm Calm 1.0 mph1.6 kmh 29.85 in1010.8 mb 0.09 in2.3 mm 0.00 in0.0 mm 0.07 in1.8 mm
12:40 AM 56.0°F13.3°C 54.3°F12.4°C 94% Calm Calm 3.0 mph4.8 kmh 29.85 in1010.8 mb 0.10 in2.5 mm 0.00 in0.0 mm 0.07 in1.8 mm
12:35 AM 56.1°F13.4°C 54.4°F12.4°C 94% Calm Calm 3.0 mph4.8 kmh 29.85 in1010.8 mb 0.10 in2.5 mm 0.00 in0.0 mm 0.07 in1.8 mm
12:30 AM 56.2°F13.4°C 54.5°F12.5°C 94% Calm Calm 2.0 mph3.2 kmh 29.85 in1010.8 mb 0.11 in2.8 mm 0.00 in0.0 mm 0.07 in1.8 mm
12:25 AM 56.3°F13.5°C 54.6°F12.6°C 94% Calm Calm 1.0 mph1.6 kmh 29.86 in1011.2 mb 0.11 in2.8 mm 0.00 in0.0 mm 0.06 in1.5 mm
12:20 AM 56.3°F13.5°C 54.6°F12.6°C 94% Calm Calm 1.0 mph1.6 kmh 29.87 in1011.5 mb 0.11 in2.8 mm 0.00 in0.0 mm 0.05 in1.3 mm
12:15 AM 56.4°F13.6°C 54.7°F12.6°C 94% Calm Calm 2.0 mph3.2 kmh 29.88 in1011.9 mb 0.11 in2.8 mm 0.12 in3.0 mm 0.04 in1.0 mm
12:10 AM 56.4°F13.6°C 54.7°F12.6°C 94% Calm Calm 3.0 mph4.8 kmh 29.89 in1012.2 mb 0.10 in2.5 mm 0.00 in0.0 mm 0.02 in0.5 mm
12:05 AM 56.6°F13.7°C 54.9°F12.7°C 94% 1.0 mph SE1.6 kmh SE 3.0 mph4.8 kmh 29.89 in1012.2 mb 0.10 in2.5 mm 0.00 in0.0 mm 0.01 in0.3 mm
12:00 AM 56.5°F13.6°C 54.8°F12.7°C 94% Calm Calm 2.0 mph3.2 kmh 29.89 in1012.2 mb 0.10 in2.5 mm 0.00 in0.0 mm 0.10 in2.5 mm